Waldport, OR

6:11 AM PDT on September 30, 2016 (GMT -0700)
Lake Side | | Change Station

Elev 56 ft 44.41 °N, 124.03 °W | Updated 27 seconds ago

Mostly Cloudy
Mostly Cloudy
44.6 °F
Feels Like 45 °F
N
0.0
Wind Variable Wind from SSE
Gusts 0.0 mph

Today
High -- | Low -- °F
--% Chance of Precip.
Yesterday
High -- | Low -- °F
Precip. -- in
Pressure 30.07 in
Visibility 1.2 miles
Clouds Mostly Cloudy 100 ft
Windchill 45 °F
Dew Point 44 °F
Humidity 98%
Rainfall 0.00 in
Snow Depth Not available.
7:13 AM 6:57 PM
Waning Crescent, 0% visible
METAR KONP 301255Z AUTO 00000KT 1 1/4SM BR BKN001 06/06 A3007 RMK AO2
Pressure 30.07 in
Visibility 1.2 miles
Clouds Mostly Cloudy 100 ft
Windchill 45 °F
Dew Point 44 °F
Humidity 98%
Rainfall 0.00 in
Snow Depth Not available.
7:13 AM 6:57 PM
Waning Crescent, 0% visible
METAR KONP 301255Z AUTO 00000KT 1 1/4SM BR BKN001 06/06 A3007 RMK AO2

10-Day Weather Forecast

Almanac

Astronomy

Sep. 30, 2016 Rise Set
Actual Time
Civil Twilight
Nautical Twilight
Astronomical Twilight
Moon
Length of Visible Light
Length of Day
Tomorrow will be .
, % of the Moon is Illuminated

Today's Extremes

State Highs State Lows

Community

WunderPhotos

Upload Photos

1,942,708 photos uploaded!

WunderBlog® & News

Nearby

Air Quality

  Air Quality AQ Index Pollutant
Not available.

Snow Depth

Station Depth Elevation

Earthquake Activity

City Distance Mag. Time & Date
Minimum magnitude displayed is 2.5.

Coastal Water Temperatures

Place Temperature

Stations

Nearby Weather Stations

Station Location Temp. Windchill Dew Point Humidity Wind Precip. Elev Updated Type
                   

Watches & Warnings

There are currently no watches in effect.